createdAt,value
2023-03-03T00:23:50.256Z,100
2023-03-03T00:54:57.472Z,102
2023-03-03T01:24:52.175Z,103
2023-03-03T01:56:01.176Z,102
2023-03-03T02:25:56.937Z,102
2023-03-03T02:55:55.597Z,104
2023-03-03T03:25:52.786Z,105
2023-03-03T03:55:54.285Z,108
2023-03-03T04:25:53.353Z,111
2023-03-03T04:55:54.900Z,111
2023-03-03T05:25:51.084Z,111
2023-03-03T05:55:50.904Z,114
2023-03-03T06:25:51.002Z,118
2023-03-03T06:55:54.761Z,114
2023-03-03T07:25:49.786Z,121
2023-03-03T07:55:52.408Z,121
2023-03-03T08:25:51.658Z,128
2023-03-03T08:55:48.544Z,121
2023-03-03T09:25:50.484Z,127
2023-03-03T09:55:52.443Z,126
2023-03-03T10:25:51.745Z,128
2023-03-03T10:55:50.294Z,131
2023-03-03T11:25:52.536Z,129
2023-03-03T11:55:54.166Z,129
2023-03-03T12:25:52.370Z,120
2023-03-03T12:55:53.478Z,133
2023-03-03T13:26:00.440Z,120
2023-03-03T13:56:03.304Z,119
2023-03-03T14:26:02.136Z,119
2023-03-03T14:56:00.753Z,118
2023-03-03T15:25:58.323Z,118
2023-03-03T15:56:00.061Z,117
2023-03-03T16:25:54.855Z,117
2023-03-03T16:55:56.107Z,122
2023-03-03T17:25:51.728Z,119
2023-03-03T17:55:41.842Z,124
2023-03-03T18:25:40.636Z,117
2023-03-03T18:56:48.382Z,117
2023-03-03T19:26:32.956Z,115
2023-03-03T19:56:28.144Z,120
2023-03-03T20:26:26.176Z,116
2023-03-03T20:56:25.083Z,116
2023-03-03T21:26:23.818Z,112
2023-03-03T21:56:23.256Z,117
2023-03-03T22:26:15.493Z,112
2023-03-03T22:56:15.872Z,108
2023-03-03T23:26:09.709Z,106
2023-03-03T23:56:09.169Z,111
